Time;durP1;ratioP1;P1;durP2;ratioP2;P2;SDS_P1;SDS_P2;PMS_P1;PMS_P2;Temp;Humidity;BMP_temperature;BMP_pressure;BME280_temperature;BME280_humidity;BME280_pressure;Samples;Min_cycle;Max_cycle;Signal;HPM_P1;HPM_P2
2023/03/04 00:01:00;;;;;;;;;;;5.70;1.00;;;;;;6248268;23;19911;-80
2023/03/04 00:03:26;;;;;;;;;;;5.70;1.00;;;;;;6248088;23;19931;-80
2023/03/04 00:05:51;;;;;;;;;;;5.70;1.00;;;;;;6221069;23;20309;-81
2023/03/04 00:08:17;;;;;;;;;;;5.70;99.90;;;;;;6221770;23;19904;-81
2023/03/04 00:10:42;;;;;;;;;;;5.60;1.00;;;;;;6268416;22;20377;-81
2023/03/04 00:13:08;;;;;;;;;;;5.60;1.00;;;;;;6250767;22;19911;-83
2023/03/04 00:15:33;;;;;;;;;;;5.60;1.00;;;;;;6251328;22;19904;-83
2023/03/04 00:17:59;;;;;;;;;;;5.70;1.00;;;;;;6251794;22;20241;-83
2023/03/04 00:20:24;;;;;;;;;;;5.70;1.00;;;;;;6273188;22;19953;-82
2023/03/04 00:22:49;;;;;;;;;;;5.70;99.90;;;;;;6245612;23;19904;-82
2023/03/04 00:25:15;;;;;;;;;;;5.70;99.90;;;;;;6249677;22;19983;-83
2023/03/04 00:27:40;;;;;;;;;;;5.70;99.90;;;;;;6249044;23;19904;-82
2023/03/04 00:30:06;;;;;;;;;;;5.60;99.90;;;;;;6248731;23;19915;-83
2023/03/04 00:32:32;;;;;;;;;;;5.60;1.00;;;;;;6249934;22;19953;-83
2023/03/04 00:34:57;;;;;;;;;;;5.60;99.90;;;;;;6247679;23;20228;-81
2023/03/04 00:37:23;;;;;;;;;;;5.60;1.00;;;;;;6247926;23;19903;-82
2023/03/04 00:39:48;;;;;;;;;;;5.70;99.90;;;;;;6249560;22;19903;-83
2023/03/04 00:42:14;;;;;;;;;;;5.70;99.90;;;;;;6249050;22;19922;-82
2023/03/04 00:44:39;;;;;;;;;;;5.70;99.90;;;;;;6247227;23;19903;-82
2023/03/04 00:47:05;;;;;;;;;;;5.70;99.90;;;;;;6248932;22;20259;-83
2023/03/04 00:49:30;;;;;;;;;;;5.80;99.90;;;;;;6248804;22;19904;-82
2023/03/04 00:51:55;;;;;;;;;;;5.80;99.90;;;;;;6248678;22;20348;-82
2023/03/04 00:54:21;;;;;;;;;;;5.90;99.90;;;;;;6247377;23;19908;-83
2023/03/04 00:56:46;;;;;;;;;;;5.90;99.90;;;;;;6248434;22;19903;-83
2023/03/04 00:59:12;;;;;;;;;;;5.90;99.90;;;;;;6249131;22;20241;-82
2023/03/04 01:01:37;;;;;;;;;;;5.90;1.00;;;;;;6244974;23;19947;-83
2023/03/04 01:04:03;;;;;;;;;;;5.90;1.00;;;;;;6246554;22;19904;-81
2023/03/04 01:06:28;;;;;;;;;;;5.80;1.00;;;;;;6246494;22;20233;-81
2023/03/04 01:08:54;;;;;;;;;;;5.80;1.00;;;;;;6237215;22;19908;-81
2023/03/04 01:11:19;;;;;;;;;;;5.80;1.00;;;;;;6225120;23;19909;-83
2023/03/04 01:13:45;;;;;;;;;;;5.80;1.00;;;;;;6224664;23;20345;-82
2023/03/04 01:16:11;;;;;;;;;;;5.80;1.00;;;;;;6223988;23;20243;-82
2023/03/04 01:18:37;;;;;;;;;;;5.80;99.90;;;;;;6122155;23;19940;-81
2023/03/04 01:21:02;;;;;;;;;;;5.80;99.90;;;;;;6123368;23;19913;-82
2023/03/04 01:23:28;;;;;;;;;;;5.70;1.00;;;;;;6124014;23;19912;-83
2023/03/04 01:25:53;;;;;;;;;;;5.80;99.90;;;;;;6122908;23;20432;-82
2023/03/04 01:28:19;;;;;;;;;;;5.70;38.50;;;;;;6122311;23;20344;-81
2023/03/04 01:30:44;;;;;;;;;;;5.70;63.10;;;;;;6254023;22;19936;-82
2023/03/04 01:33:10;;;;;;;;;;;5.70;99.90;;;;;;6229329;23;19909;-83
2023/03/04 01:35:35;;;;;;;;;;;5.70;24.60;;;;;;6126663;23;19905;-81
2023/03/04 01:38:01;;;;;;;;;;;5.80;1.00;;;;;;6121905;23;19905;-82
2023/03/04 01:40:26;;;;;;;;;;;5.70;1.00;;;;;;6122851;23;19955;-83
2023/03/04 01:42:52;;;;;;;;;;;5.80;1.00;;;;;;6224155;23;20303;-82
2023/03/04 01:45:18;;;;;;;;;;;5.80;1.00;;;;;;6224670;23;19913;-83
2023/03/04 01:47:47;;;;;;;;;;;5.80;1.00;;;;;;6126759;23;19954;-83
2023/03/04 01:50:19;;;;;;;;;;;5.70;1.00;;;;;;6125986;23;19909;-82
2023/03/04 01:52:44;;;;;;;;;;;5.70;14.30;;;;;;6223254;23;20356;-82
2023/03/04 01:55:18;;;;;;;;;;;5.80;1.00;;;;;;6122850;23;19980;-82
2023/03/04 01:57:44;;;;;;;;;;;5.70;1.00;;;;;;6224454;23;19947;-82
2023/03/04 02:00:30;;;;;;;;;;;5.70;1.00;;;;;;6122788;23;19976;-83
2023/03/04 02:02:58;;;;;;;;;;;5.80;1.00;;;;;;6226034;23;19933;-83
2023/03/04 02:05:25;;;;;;;;;;;5.80;99.90;;;;;;6125620;23;19911;-82
2023/03/04 02:07:53;;;;;;;;;;;5.80;99.90;;;;;;6125552;23;19947;-83
2023/03/04 02:10:19;;;;;;;;;;;5.90;99.90;;;;;;6226476;23;20242;-83
2023/03/04 02:12:45;;;;;;;;;;;5.70;1.00;;;;;;6124554;23;19905;-83
2023/03/04 02:15:13;;;;;;;;;;;5.80;99.90;;;;;;6126022;23;19905;-82
2023/03/04 02:17:39;;;;;;;;;;;5.80;99.90;;;;;;6228926;23;19905;-83
2023/03/04 02:20:08;;;;;;;;;;;5.90;99.90;;;;;;6125645;23;19916;-83
2023/03/04 02:22:36;;;;;;;;;;;5.90;50.00;;;;;;6125412;23;19931;-83
2023/03/04 02:25:13;;;;;;;;;;;5.90;99.90;;;;;;6124932;23;19955;-82
2023/03/04 02:27:39;;;;;;;;;;;6.00;1.00;;;;;;6122986;23;19911;-82
2023/03/04 02:30:05;;;;;;;;;;;6.00;1.00;;;;;;6123313;23;19944;-82
2023/03/04 02:32:30;;;;;;;;;;;6.00;1.00;;;;;;6124845;23;19905;-83
2023/03/04 02:34:56;;;;;;;;;;;6.00;1.00;;;;;;6125027;23;19911;-83
2023/03/04 02:37:21;;;;;;;;;;;5.90;99.90;;;;;;6125185;23;20246;-83
2023/03/04 02:39:47;;;;;;;;;;;5.90;99.90;;;;;;6125015;23;19911;-82
2023/03/04 02:42:14;;;;;;;;;;;5.90;99.90;;;;;;6226461;23;19941;-82
2023/03/04 02:44:42;;;;;;;;;;;6.00;1.00;;;;;;6226489;23;19935;-83
2023/03/04 02:47:09;;;;;;;;;;;6.00;1.00;;;;;;6124176;23;19905;-82
2023/03/04 02:49:35;;;;;;;;;;;6.00;1.00;;;;;;6124595;23;19936;-83
2023/03/04 02:52:02;;;;;;;;;;;6.10;1.00;;;;;;6122259;23;19905;-81
2023/03/04 02:54:28;;;;;;;;;;;6.10;1.00;;;;;;6224895;23;19917;-81
2023/03/04 02:56:56;;;;;;;;;;;6.10;99.90;;;;;;6124660;23;19909;-82
2023/03/04 02:59:22;;;;;;;;;;;6.00;1.00;;;;;;6257880;22;19893;-81
2023/03/04 03:01:48;;;;;;;;;;;6.00;99.90;;;;;;6144107;23;19929;-82
2023/03/04 03:04:14;;;;;;;;;;;6.00;1.00;;;;;;6139187;23;19909;-83
2023/03/04 03:06:39;;;;;;;;;;;6.10;99.90;;;;;;6123681;23;19912;-82
2023/03/04 03:09:05;;;;;;;;;;;6.00;1.00;;;;;;6122108;23;20015;-82
2023/03/04 03:11:31;;;;;;;;;;;6.00;1.00;;;;;;6126960;23;20335;-82
2023/03/04 03:13:56;;;;;;;;;;;6.00;1.00;;;;;;6127413;23;20347;-83
2023/03/04 03:16:22;;;;;;;;;;;6.00;1.00;;;;;;6230193;23;20398;-83
2023/03/04 03:18:48;;;;;;;;;;;6.10;1.00;;;;;;6127760;23;19912;-83
2023/03/04 03:21:13;;;;;;;;;;;6.10;1.00;;;;;;6229373;23;19962;-82
2023/03/04 03:23:39;;;;;;;;;;;6.00;1.00;;;;;;6127425;23;19915;-83
2023/03/04 03:26:04;;;;;;;;;;;6.10;99.90;;;;;;6126768;23;20346;-83
2023/03/04 03:28:30;;;;;;;;;;;6.10;99.90;;;;;;6126745;23;19905;-83
2023/03/04 03:30:55;;;;;;;;;;;6.10;99.90;;;;;;6125946;23;19983;-83
2023/03/04 03:33:21;;;;;;;;;;;6.10;99.90;;;;;;6125706;23;19916;-83
2023/03/04 03:35:46;;;;;;;;;;;6.00;12.00;;;;;;6228114;23;20287;-82
2023/03/04 03:38:12;;;;;;;;;;;6.10;1.00;;;;;;6228343;23;19905;-81
2023/03/04 03:40:37;;;;;;;;;;;6.10;83.90;;;;;;6124657;23;19906;-82
2023/03/04 03:43:03;;;;;;;;;;;6.10;11.20;;;;;;6122871;23;19909;-82
2023/03/04 03:45:28;;;;;;;;;;;6.10;27.10;;;;;;6123140;23;20319;-82
2023/03/04 03:47:53;;;;;;;;;;;6.10;99.90;;;;;;6125582;23;19959;-83
2023/03/04 03:50:19;;;;;;;;;;;6.10;67.10;;;;;;6125837;23;19980;-83
2023/03/04 03:52:44;;;;;;;;;;;6.10;99.90;;;;;;6226333;23;20237;-81
2023/03/04 03:55:10;;;;;;;;;;;6.20;1.00;;;;;;6125242;23;20323;-82
2023/03/04 03:57:35;;;;;;;;;;;6.20;99.90;;;;;;6122718;23;19905;-82
2023/03/04 04:00:02;;;;;;;;;;;6.10;1.00;;;;;;6224248;23;19905;-83
2023/03/04 04:02:27;;;;;;;;;;;6.00;1.00;;;;;;6124142;23;19905;-83
2023/03/04 04:04:53;;;;;;;;;;;6.00;1.00;;;;;;6124629;23;19905;-81
2023/03/04 04:07:18;;;;;;;;;;;6.10;1.00;;;;;;6223959;23;19905;-82
2023/03/04 04:09:43;;;;;;;;;;;6.10;1.00;;;;;;6121674;23;19991;-81
2023/03/04 04:12:11;;;;;;;;;;;6.10;1.00;;;;;;6123442;23;19905;-82
2023/03/04 04:14:37;;;;;;;;;;;6.10;1.00;;;;;;6124331;23;19909;-82
2023/03/04 04:17:02;;;;;;;;;;;6.00;1.00;;;;;;6125051;23;19912;-83
2023/03/04 04:19:28;;;;;;;;;;;6.10;1.00;;;;;;6226284;23;20349;-81
2023/03/04 04:21:53;;;;;;;;;;;6.10;1.00;;;;;;6123757;23;19909;-83
2023/03/04 04:24:19;;;;;;;;;;;6.20;1.00;;;;;;6124923;23;19987;-83
2023/03/04 04:26:44;;;;;;;;;;;6.10;99.90;;;;;;6123803;23;19905;-81
2023/03/04 04:29:11;;;;;;;;;;;6.10;99.90;;;;;;6123074;23;19905;-82
2023/03/04 04:31:37;;;;;;;;;;;6.10;99.90;;;;;;6127599;23;19912;-83
2023/03/04 04:34:02;;;;;;;;;;;6.00;99.90;;;;;;6140768;23;19909;-82
2023/03/04 04:36:28;;;;;;;;;;;6.00;99.90;;;;;;6231414;23;19905;-83
2023/03/04 04:38:53;;;;;;;;;;;6.00;99.90;;;;;;6125798;23;19932;-82
2023/03/04 04:41:20;;;;;;;;;;;6.00;99.90;;;;;;6127867;23;20545;-82
2023/03/04 04:43:46;;;;;;;;;;;6.10;99.90;;;;;;6229037;23;19984;-82
2023/03/04 04:46:11;;;;;;;;;;;6.00;99.90;;;;;;6126801;23;20290;-82
2023/03/04 04:48:37;;;;;;;;;;;6.00;99.90;;;;;;6126466;23;19905;-83
2023/03/04 04:51:03;;;;;;;;;;;6.00;99.90;;;;;;6227413;23;19905;-83
2023/03/04 04:53:29;;;;;;;;;;;6.10;99.90;;;;;;6126401;23;19958;-83
2023/03/04 04:55:54;;;;;;;;;;;6.10;99.90;;;;;;6126502;23;19925;-82
2023/03/04 04:58:19;;;;;;;;;;;6.20;99.90;;;;;;6126252;23;19947;-83
2023/03/04 05:00:45;;;;;;;;;;;6.20;99.90;;;;;;6129062;23;19905;-83
2023/03/04 05:03:10;;;;;;;;;;;6.10;1.00;;;;;;6127486;23;19931;-82
2023/03/04 05:05:36;;;;;;;;;;;6.10;99.90;;;;;;6129590;23;19916;-83
2023/03/04 05:08:01;;;;;;;;;;;6.10;99.90;;;;;;6127735;23;19905;-83
2023/03/04 05:10:27;;;;;;;;;;;6.20;99.90;;;;;;6125092;23;19917;-82
2023/03/04 05:12:52;;;;;;;;;;;6.30;99.90;;;;;;6124497;23;19948;-83
2023/03/04 05:15:18;;;;;;;;;;;6.30;99.90;;;;;;6226271;23;19914;-83
2023/03/04 05:17:43;;;;;;;;;;;6.30;45.90;;;;;;6125165;23;20330;-83
2023/03/04 05:20:09;;;;;;;;;;;6.30;1.00;;;;;;6124241;23;19905;-83
2023/03/04 05:22:35;;;;;;;;;;;6.30;5.10;;;;;;6124261;23;19954;-81
2023/03/04 05:25:00;;;;;;;;;;;6.30;1.00;;;;;;6124568;23;19905;-82
2023/03/04 05:27:25;;;;;;;;;;;6.30;91.80;;;;;;6121708;23;19951;-81
2023/03/04 05:29:52;;;;;;;;;;;6.30;97.60;;;;;;6121511;23;19909;-82
2023/03/04 05:32:17;;;;;;;;;;;6.30;91.00;;;;;;6123725;23;19909;-82
2023/03/04 05:34:43;;;;;;;;;;;6.30;61.90;;;;;;6225592;23;19931;-83
2023/03/04 05:37:08;;;;;;;;;;;6.30;9.70;;;;;;6226335;23;19905;-82
2023/03/04 05:39:33;;;;;;;;;;;6.30;1.00;;;;;;6226210;23;19909;-83
2023/03/04 05:41:59;;;;;;;;;;;6.40;1.00;;;;;;6123631;23;20333;-83
2023/03/04 05:44:24;;;;;;;;;;;6.40;1.00;;;;;;6124784;23;19912;-83
2023/03/04 05:46:50;;;;;;;;;;;6.40;1.00;;;;;;6123829;23;19905;-83
2023/03/04 05:49:15;;;;;;;;;;;6.40;1.00;;;;;;6124278;23;20246;-83
2023/03/04 05:51:41;;;;;;;;;;;6.30;1.00;;;;;;6225728;23;19905;-83
2023/03/04 05:54:06;;;;;;;;;;;6.30;1.00;;;;;;6224769;23;20000;-82
2023/03/04 05:56:32;;;;;;;;;;;6.20;41.00;;;;;;6122679;23;19905;-82
2023/03/04 05:58:58;;;;;;;;;;;6.20;99.90;;;;;;6122661;23;19951;-83
2023/03/04 06:01:23;;;;;;;;;;;6.10;99.90;;;;;;6122285;23;19937;-80
2023/03/04 06:03:49;;;;;;;;;;;6.10;99.90;;;;;;6122099;23;19935;-82
2023/03/04 06:06:14;;;;;;;;;;;6.00;1.00;;;;;;6261997;22;19905;-82
2023/03/04 06:08:40;;;;;;;;;;;6.00;1.00;;;;;;6135002;23;19912;-81
2023/03/04 06:11:05;;;;;;;;;;;6.00;95.20;;;;;;6123778;23;20389;-78
2023/03/04 06:13:31;;;;;;;;;;;6.00;1.00;;;;;;6250992;22;19913;-78
2023/03/04 06:15:57;;;;;;;;;;;6.00;1.10;;;;;;6124257;23;19929;-79
2023/03/04 06:18:24;;;;;;;;;;;6.00;56.90;;;;;;6124838;23;19905;-79
2023/03/04 06:20:49;;;;;;;;;;;6.00;1.00;;;;;;6251159;22;20242;-79
2023/03/04 06:23:15;;;;;;;;;;;6.10;1.00;;;;;;6224855;23;19912;-79
2023/03/04 06:25:40;;;;;;;;;;;6.10;1.00;;;;;;6224890;23;19920;-79
2023/03/04 06:28:06;;;;;;;;;;;6.20;79.30;;;;;;6250554;22;19955;-78
2023/03/04 06:30:31;;;;;;;;;;;6.20;1.00;;;;;;6123982;23;19909;-78
2023/03/04 06:32:57;;;;;;;;;;;6.20;24.30;;;;;;6123488;23;20342;-79
2023/03/04 06:35:22;;;;;;;;;;;6.20;99.90;;;;;;6226013;23;19905;-79
2023/03/04 06:37:48;;;;;;;;;;;6.10;99.90;;;;;;6226027;23;19980;-78
2023/03/04 06:40:13;;;;;;;;;;;6.10;1.00;;;;;;6225001;23;19905;-79
2023/03/04 06:42:39;;;;;;;;;;;6.20;99.90;;;;;;6225846;23;19927;-78
2023/03/04 06:45:05;;;;;;;;;;;6.20;1.00;;;;;;6123300;23;19909;-79
2023/03/04 06:47:30;;;;;;;;;;;6.20;1.00;;;;;;6251321;22;19905;-79
2023/03/04 06:49:56;;;;;;;;;;;6.30;99.90;;;;;;6250516;22;19984;-78
2023/03/04 06:52:21;;;;;;;;;;;6.30;92.60;;;;;;6225743;23;19935;-79
2023/03/04 06:54:47;;;;;;;;;;;6.40;1.00;;;;;;6225135;23;19952;-78
2023/03/04 06:57:12;;;;;;;;;;;6.30;1.00;;;;;;6225548;23;19979;-79
2023/03/04 06:59:38;;;;;;;;;;;6.30;1.00;;;;;;6122728;23;19905;-79
2023/03/04 07:02:03;;;;;;;;;;;6.30;1.00;;;;;;6252076;22;20319;-78
2023/03/04 07:04:29;;;;;;;;;;;6.30;1.00;;;;;;6227752;23;20243;-79
2023/03/04 07:06:54;;;;;;;;;;;6.40;99.90;;;;;;6124556;23;19905;-78
2023/03/04 07:09:20;;;;;;;;;;;6.30;99.90;;;;;;6252547;22;19909;-79
2023/03/04 07:11:45;;;;;;;;;;;6.30;99.90;;;;;;6252466;22;19909;-79
2023/03/04 07:14:11;;;;;;;;;;;6.30;1.00;;;;;;6226767;23;20512;-79
2023/03/04 07:16:36;;;;;;;;;;;6.20;1.00;;;;;;6251907;22;19905;-78
2023/03/04 07:19:02;;;;;;;;;;;6.30;1.00;;;;;;6252633;22;19912;-79
2023/03/04 07:21:28;;;;;;;;;;;6.30;1.00;;;;;;6124092;23;19905;-78
2023/03/04 07:23:53;;;;;;;;;;;6.40;1.00;;;;;;6227018;23;19984;-78
2023/03/04 07:26:19;;;;;;;;;;;6.30;1.00;;;;;;6251675;22;19951;-79
2023/03/04 07:28:45;;;;;;;;;;;6.40;1.00;;;;;;6227375;23;20450;-79
2023/03/04 07:31:19;;;;;;;;;;;6.40;1.00;;;;;;6124516;23;19928;-79
2023/03/04 07:33:44;;;;;;;;;;;6.50;1.00;;;;;;6227260;23;19909;-79
2023/03/04 07:36:10;;;;;;;;;;;6.50;1.00;;;;;;6252065;22;19905;-78
2023/03/04 07:38:35;;;;;;;;;;;6.60;87.80;;;;;;6226816;23;19970;-78
2023/03/04 07:41:01;;;;;;;;;;;6.70;1.00;;;;;;6225810;23;20285;-78
2023/03/04 07:43:27;;;;;;;;;;;6.70;1.00;;;;;;6124823;23;19912;-79
2023/03/04 07:45:57;;;;;;;;;;;6.80;1.00;;;;;;6226311;23;19908;-79
2023/03/04 07:48:22;;;;;;;;;;;6.90;99.90;;;;;;6226911;23;19944;-79
2023/03/04 07:50:48;;;;;;;;;;;6.90;99.90;;;;;;6123640;23;19909;-79
2023/03/04 07:53:13;;;;;;;;;;;6.90;99.90;;;;;;6225303;23;19915;-79
2023/03/04 07:55:39;;;;;;;;;;;6.90;99.90;;;;;;6124119;23;20336;-79
2023/03/04 07:58:04;;;;;;;;;;;7.00;99.90;;;;;;6123573;23;20015;-79
2023/03/04 08:00:30;;;;;;;;;;;7.00;99.90;;;;;;6226106;23;19905;-79
2023/03/04 08:02:55;;;;;;;;;;;6.90;1.00;;;;;;6226367;23;19912;-79
2023/03/04 08:05:21;;;;;;;;;;;6.90;1.00;;;;;;6124080;23;19963;-79
2023/03/04 08:07:46;;;;;;;;;;;7.00;1.00;;;;;;6124168;23;19912;-79
2023/03/04 08:10:12;;;;;;;;;;;7.10;1.00;;;;;;6251185;22;19920;-81
2023/03/04 08:12:37;;;;;;;;;;;7.10;99.90;;;;;;6251102;22;19931;-79
2023/03/04 08:15:03;;;;;;;;;;;7.00;99.90;;;;;;6123166;23;19913;-80
2023/03/04 08:17:28;;;;;;;;;;;7.10;99.90;;;;;;6251905;22;20038;-80
2023/03/04 08:19:54;;;;;;;;;;;7.20;99.90;;;;;;6251476;22;19905;-80
2023/03/04 08:22:20;;;;;;;;;;;7.30;99.90;;;;;;6226389;23;19905;-79
2023/03/04 08:24:45;;;;;;;;;;;7.30;99.90;;;;;;6124927;23;19905;-80
2023/03/04 08:27:11;;;;;;;;;;;7.10;99.90;;;;;;6125751;23;20330;-80
2023/03/04 08:29:36;;;;;;;;;;;7.00;99.90;;;;;;6124499;23;19905;-80
2023/03/04 08:32:02;;;;;;;;;;;6.80;99.90;;;;;;6252463;22;19905;-80
2023/03/04 08:34:27;;;;;;;;;;;7.00;1.00;;;;;;6123642;23;20396;-80
2023/03/04 08:36:53;;;;;;;;;;;7.00;99.90;;;;;;6251831;22;19939;-81
2023/03/04 08:39:19;;;;;;;;;;;7.20;99.90;;;;;;6225706;23;19916;-79
2023/03/04 08:41:45;;;;;;;;;;;7.30;1.00;;;;;;6124043;23;19932;-80
2023/03/04 08:44:10;;;;;;;;;;;7.50;1.00;;;;;;6225686;23;19905;-80
2023/03/04 08:46:37;;;;;;;;;;;7.50;99.90;;;;;;6251757;22;19928;-80
2023/03/04 08:49:03;;;;;;;;;;;7.30;99.90;;;;;;6225477;23;19912;-79
2023/03/04 08:51:28;;;;;;;;;;;7.50;1.00;;;;;;6250836;22;20250;-79
2023/03/04 08:53:54;;;;;;;;;;;7.90;97.80;;;;;;6235906;23;20042;-80
2023/03/04 08:56:19;;;;;;;;;;;7.90;99.90;;;;;;6255980;22;19905;-81
2023/03/04 08:58:45;;;;;;;;;;;8.00;1.00;;;;;;6128763;23;19905;-80
2023/03/04 09:01:11;;;;;;;;;;;7.70;1.00;;;;;;6127280;23;19912;-81
2023/03/04 09:03:37;;;;;;;;;;;7.60;99.90;;;;;;6252631;22;19909;-79
2023/03/04 09:06:03;;;;;;;;;;;7.60;1.00;;;;;;6125812;23;19949;-79
2023/03/04 09:08:29;;;;;;;;;;;7.80;99.90;;;;;;6127485;23;19909;-80
2023/03/04 09:10:58;;;;;;;;;;;8.10;1.00;;;;;;6252460;22;19996;-79
2023/03/04 09:13:24;;;;;;;;;;;8.30;99.90;;;;;;6253487;22;19945;-81
2023/03/04 09:15:51;;;;;;;;;;;8.50;1.00;;;;;;6126077;23;19912;-79
2023/03/04 09:18:16;;;;;;;;;;;8.70;1.00;;;;;;6124392;23;19905;-79
2023/03/04 09:20:42;;;;;;;;;;;9.00;1.00;;;;;;6125379;23;20349;-78
2023/03/04 09:23:08;;;;;;;;;;;9.30;1.00;;;;;;6125194;23;19927;-79
2023/03/04 09:26:08;;;;;;;;;;;9.50;10.00;;;;;;6227473;23;19905;-79
2023/03/04 09:28:33;;;;;;;;;;;9.20;1.00;;;;;;6126080;23;19956;-79
2023/03/04 09:30:59;;;;;;;;;;;9.10;1.00;;;;;;6125230;23;19905;-79
2023/03/04 09:33:24;;;;;;;;;;;9.20;1.00;;;;;;6125730;23;19946;-80
2023/03/04 09:35:50;;;;;;;;;;;9.20;1.00;;;;;;6125097;23;19909;-80
2023/03/04 09:38:18;;;;;;;;;;;9.10;1.00;;;;;;6253268;22;19905;-79
2023/03/04 09:43:47;;;;;;;;;;;9.00;1.00;;;;;;6125731;23;19947;-79
2023/03/04 09:46:38;;;;;;;;;;;9.50;99.90;;;;;;6125797;23;19905;-79
2023/03/04 09:49:22;;;;;;;;;;;9.30;99.90;;;;;;6138020;22;19932;-79
2023/03/04 09:51:55;;;;;;;;;;;9.20;99.90;;;;;;6222870;23;19931;-79
2023/03/04 09:54:22;;;;;;;;;;;9.10;99.90;;;;;;6124801;23;19909;-80
2023/03/04 09:56:50;;;;;;;;;;;8.70;1.00;;;;;;6226729;23;19905;-79
2023/03/04 09:59:18;;;;;;;;;;;8.50;1.00;;;;;;6226873;23;20018;-80
2023/03/04 10:01:49;;;;;;;;;;;8.40;1.00;;;;;;6123750;23;20277;-79
2023/03/04 10:04:34;;;;;;;;;;;8.50;99.90;;;;;;6225213;23;19916;-79
2023/03/04 10:07:00;;;;;;;;;;;8.40;1.00;;;;;;6123196;23;19905;-79
2023/03/04 10:09:35;;;;;;;;;;;8.30;99.90;;;;;;6123675;23;19905;-79
2023/03/04 10:12:05;;;;;;;;;;;8.40;1.00;;;;;;6122620;23;20315;-78
2023/03/04 10:14:38;;;;;;;;;;;8.30;99.90;;;;;;6224738;23;20243;-79
2023/03/04 10:17:09;;;;;;;;;;;8.20;99.90;;;;;;6123836;23;20252;-79
2023/03/04 10:19:43;;;;;;;;;;;8.30;1.00;;;;;;6225107;23;19905;-78
2023/03/04 10:22:15;;;;;;;;;;;8.40;99.90;;;;;;6121170;23;19912;-79
2023/03/04 10:24:40;;;;;;;;;;;8.60;99.90;;;;;;6123066;23;19995;-79
2023/03/04 10:27:09;;;;;;;;;;;8.70;1.00;;;;;;6123927;23;19906;-78
2023/03/04 10:29:35;;;;;;;;;;;9.10;99.90;;;;;;6223590;23;19923;-78
2023/03/04 10:32:00;;;;;;;;;;;9.30;1.00;;;;;;6122980;23;19905;-78
2023/03/04 10:34:26;;;;;;;;;;;9.40;1.00;;;;;;6123307;23;20034;-78
2023/03/04 10:36:57;;;;;;;;;;;9.60;99.90;;;;;;6125274;23;19913;-79
2023/03/04 10:39:34;;;;;;;;;;;9.50;99.90;;;;;;6125107;23;19905;-80
2023/03/04 10:42:04;;;;;;;;;;;9.60;84.70;;;;;;6124083;23;20219;-80
2023/03/04 10:44:31;;;;;;;;;;;9.80;1.00;;;;;;6125478;23;20353;-78
2023/03/04 10:46:57;;;;;;;;;;;9.90;1.00;;;;;;6124706;23;19981;-78
2023/03/04 10:49:23;;;;;;;;;;;10.10;1.00;;;;;;6226640;23;19905;-78
2023/03/04 10:51:54;;;;;;;;;;;10.10;1.00;;;;;;6226509;23;19905;-78
2023/03/04 10:54:30;;;;;;;;;;;10.00;1.00;;;;;;6124936;23;19916;-78
2023/03/04 10:56:58;;;;;;;;;;;10.00;99.90;;;;;;6228505;23;19911;-78
2023/03/04 11:02:00;;;;;;;;;;;10.10;99.90;;;;;;6121585;23;20236;-80
2023/03/04 11:04:31;;;;;;;;;;;9.90;99.90;;;;;;6124604;23;20247;-80
2023/03/04 11:06:56;;;;;;;;;;;9.70;99.90;;;;;;6125317;23;19905;-80
2023/03/04 11:14:56;;;;;;;;;;;9.80;1.00;;;;;;6240666;22;19974;-76
2023/03/04 11:31:20;;;;;;;;;;;9.70;99.90;;;;;;6163897;22;20345;-79
2023/03/04 11:40:29;;;;;;;;;;;9.30;1.00;;;;;;6092358;23;19912;-77
2023/03/04 11:43:25;;;;;;;;;;;9.00;1.00;;;;;;6122945;23;19956;-78
2023/03/04 11:46:32;;;;;;;;;;;8.90;6.60;;;;;;6125214;22;19905;-77
2023/03/04 11:55:04;;;;;;;;;;;9.10;99.90;;;;;;6123454;23;19912;-80
2023/03/04 11:57:37;;;;;;;;;;;9.40;1.00;;;;;;6225634;23;19947;-81
2023/03/04 12:00:21;;;;;;;;;;;9.50;1.00;;;;;;6226582;22;19966;-79
2023/03/04 12:03:05;;;;;;;;;;;9.90;1.00;;;;;;6122508;23;19905;-79
2023/03/04 12:05:39;;;;;;;;;;;10.10;99.90;;;;;;6226192;23;20318;-80
2023/03/04 12:08:20;;;;;;;;;;;10.80;99.90;;;;;;6123772;23;19909;-79
2023/03/04 12:10:50;;;;;;;;;;;11.60;99.90;;;;;;6252960;22;19936;-80
2023/03/04 12:13:16;;;;;;;;;;;12.10;1.00;;;;;;6231431;23;19905;-80
2023/03/04 12:15:46;;;;;;;;;;;11.90;1.00;;;;;;6229906;23;19912;-81
2023/03/04 12:18:28;;;;;;;;;;;11.60;1.00;;;;;;6255004;22;19909;-80
2023/03/04 12:20:59;;;;;;;;;;;11.50;1.00;;;;;;6124810;23;19905;-80
2023/03/04 12:23:51;;;;;;;;;;;11.20;1.00;;;;;;6225954;23;19918;-80
2023/03/04 12:26:35;;;;;;;;;;;10.80;1.00;;;;;;6231861;23;19988;-80
2023/03/04 12:29:00;;;;;;;;;;;10.50;1.00;;;;;;6130533;23;19905;-80
2023/03/04 13:45:43;;;;;;;;;;;;;;;;;;;;;
2023/03/04 13:51:35;;;;;;;;;;;9.80;1.00;;;;;;6126072;23;19971;-79
2023/03/04 14:47:19;;;;;;;;;;;9.30;99.90;;;;;;6127643;23;20291;-80
2023/03/04 14:52:31;;;;;;;;;;;9.20;1.00;;;;;;6125932;23;19921;-81
2023/03/04 14:55:02;;;;;;;;;;;9.20;99.90;;;;;;6253116;22;19905;-80
2023/03/04 14:57:31;;;;;;;;;;;9.30;1.00;;;;;;6254065;22;20288;-80
2023/03/04 15:00:12;;;;;;;;;;;9.30;1.00;;;;;;6242834;22;19905;-80
2023/03/04 15:02:42;;;;;;;;;;;9.30;1.00;;;;;;6197644;23;20396;-81
2023/03/04 15:05:10;;;;;;;;;;;9.20;47.80;;;;;;6196569;23;19913;-82
2023/03/04 15:07:36;;;;;;;;;;;9.30;1.00;;;;;;6197361;23;19906;-81
2023/03/04 17:14:23;;;;;;;;;;;7.90;1.00;;;;;;6122089;23;20365;-81
2023/03/04 17:16:49;;;;;;;;;;;7.90;1.00;;;;;;6224195;23;19923;-80
2023/03/04 17:19:14;;;;;;;;;;;8.00;1.00;;;;;;6224808;23;19905;-81
2023/03/04 17:21:40;;;;;;;;;;;8.00;1.00;;;;;;6121796;23;20322;-81
2023/03/04 17:24:07;;;;;;;;;;;8.10;1.00;;;;;;6123346;23;20330;-80
2023/03/04 17:26:33;;;;;;;;;;;8.00;1.00;;;;;;6250671;22;19905;-80
2023/03/04 17:31:49;;;;;;;;;;;8.00;1.00;;;;;;6121955;23;19921;-80
2023/03/04 17:34:55;;;;;;;;;;;8.00;1.00;;;;;;6122284;23;19995;-81
2023/03/04 17:46:59;;;;;;;;;;;8.30;1.00;;;;;;6187366;23;19904;-82
2023/03/04 17:49:45;;;;;;;;;;;;;;;;;;;;;
2023/03/04 18:02:04;;;;;;;;;;;;;;;;;;;;;
2023/03/04 18:05:21;;;;;;;;;;;;;;;;;;;;;
2023/03/04 18:14:33;;;;;;;;;;;;;;;;;;;;;
2023/03/04 18:23:57;;;;;;;;;;;;;;;;;;;;;
2023/03/04 18:35:57;;;;;;;;;;;7.90;99.90;;;;;;6123171;23;19931;-80
2023/03/04 22:07:36;;;;;;;;;;;;;;;;;;;;;
2023/03/04 23:53:11;;;;;;;;;;;6.30;99.90;;;;;;5963999;22;19914;-84
2023/03/04 23:55:37;;;;;;;;;;;6.20;99.90;;;;;;6151400;23;19991;-83
2023/03/04 23:58:02;;;;;;;;;;;6.20;99.90;;;;;;6151152;23;19916;-84
